Time;durP1;ratioP1;P1;durP2;ratioP2;P2;SDS_P1;SDS_P2;PMS_P1;PMS_P2;Temp;Humidity;BMP_temperature;BMP_pressure;BME280_temperature;BME280_humidity;BME280_pressure;Samples;Min_cycle;Max_cycle;Signal;HPM_P1;HPM_P2
2023/09/26 00:00:21;;;;;;;4.20;2.67;;;14.90;99.90;;;15.27;72.92;101205.00;4904484;29;20772;-68
2023/09/26 00:02:53;;;;;;;3.23;2.90;;;15.00;99.90;;;15.26;73.07;101208.59;4912094;29;20701;-70
2023/09/26 00:05:23;;;;;;;3.83;3.47;;;15.00;99.90;;;15.24;73.16;101208.75;4915230;29;20654;-70
2023/09/26 00:07:51;;;;;;;2.67;2.47;;;14.90;99.90;;;15.21;73.51;101206.34;4908946;29;21092;-69
2023/09/26 00:10:19;;;;;;;3.67;2.47;;;14.90;99.90;;;15.21;73.42;101216.03;4926423;29;20726;-69
2023/09/26 00:12:47;;;;;;;2.43;2.23;;;14.90;99.90;;;15.20;73.10;101215.22;4927638;29;20717;-70
2023/09/26 00:15:15;;;;;;;2.50;2.20;;;14.90;99.90;;;15.21;73.99;101230.00;4910856;29;20661;-68
2023/09/26 00:17:42;;;;;;;2.63;2.43;;;14.90;99.90;;;15.19;73.46;101231.94;4912764;29;20646;-68
2023/09/26 00:20:10;;;;;;;2.90;2.70;;;14.90;99.90;;;15.15;73.85;101224.41;4913359;29;20673;-70
2023/09/26 00:22:37;;;;;;;5.40;2.40;;;14.90;99.90;;;15.11;73.61;101225.63;4911701;29;20665;-69
2023/09/26 00:25:05;;;;;;;2.57;2.37;;;14.90;99.90;;;15.07;74.23;101224.22;4913112;29;20641;-68
2023/09/26 00:27:33;;;;;;;3.00;2.70;;;14.80;99.90;;;15.05;74.35;101229.59;4913255;29;21210;-69
2023/09/26 00:30:00;;;;;;;2.93;2.63;;;14.80;99.90;;;15.01;74.71;101232.59;4929714;29;20650;-66
2023/09/26 00:32:27;;;;;;;2.80;2.60;;;14.70;99.90;;;15.00;74.59;101229.13;4912311;29;20649;-66
2023/09/26 00:34:54;;;;;;;2.57;2.37;;;14.70;99.90;;;14.99;75.00;101234.50;4928151;29;20630;-68
2023/09/26 00:37:21;;;;;;;2.97;2.27;;;14.70;99.90;;;14.93;74.61;101233.19;4890422;29;20642;-68
2023/09/26 00:39:48;;;;;;;2.70;2.50;;;14.70;99.90;;;14.94;74.85;101234.88;4923195;29;20761;-68
2023/09/26 00:42:15;;;;;;;3.40;3.00;;;14.70;99.90;;;14.94;74.61;101234.88;4908220;29;21225;-68
2023/09/26 00:44:42;;;;;;;2.23;2.13;;;14.70;99.90;;;14.93;74.80;101232.38;4918100;29;20630;-68
2023/09/26 00:47:09;;;;;;;2.90;2.70;;;14.70;99.90;;;14.89;74.87;101226.53;4923776;29;20713;-66
2023/09/26 00:49:36;;;;;;;3.23;2.93;;;14.60;99.90;;;14.89;74.46;101226.53;4910910;29;20643;-68
2023/09/26 00:52:04;;;;;;;3.00;2.70;;;14.60;99.90;;;14.90;74.42;101224.75;4924864;29;20726;-69
2023/09/26 00:54:33;;;;;;;5.07;2.50;;;14.60;99.90;;;14.88;74.33;101224.88;4912515;29;20673;-68
2023/09/26 00:57:00;;;;;;;2.03;1.93;;;14.60;99.90;;;14.84;74.17;101218.19;4912636;29;20753;-68
2023/09/26 00:59:28;;;;;;;2.50;2.33;;;14.60;99.90;;;14.81;74.19;101218.44;4874320;29;21113;-69
2023/09/26 01:01:55;;;;;;;2.83;2.63;;;14.60;99.90;;;14.81;74.25;101213.16;4909124;29;20622;-68
2023/09/26 01:04:23;;;;;;;2.77;2.57;;;14.50;99.90;;;14.82;74.29;101219.28;4923789;29;20733;-69
2023/09/26 01:06:50;;;;;;;2.57;2.37;;;14.50;99.90;;;14.79;74.30;101220.34;4913469;29;20657;-71
2023/09/26 01:09:17;;;;;;;2.57;2.37;;;14.50;99.90;;;14.77;74.18;101222.25;4927567;29;20974;-68
2023/09/26 01:11:44;;;;;;;2.90;2.70;;;14.50;99.90;;;14.73;74.12;101220.84;4927437;29;20638;-68
2023/09/26 01:14:11;;;;;;;3.47;2.97;;;14.50;99.90;;;14.68;74.21;101212.47;4912029;29;20629;-68
2023/09/26 01:16:38;;;;;;;2.83;2.13;;;14.40;99.90;;;14.64;74.69;101218.94;4911182;29;20650;-69
2023/09/26 01:19:06;;;;;;;2.13;2.03;;;14.40;99.90;;;14.60;75.09;101220.13;4909697;29;20670;-68
2023/09/26 01:21:33;;;;;;;4.33;2.70;;;14.40;99.90;;;14.57;75.63;101209.88;4922887;29;20650;-67
2023/09/26 01:24:01;;;;;;;2.53;2.07;;;14.30;99.90;;;14.57;75.39;101209.88;4920103;29;21079;-67
2023/09/26 01:26:36;;;;;;;3.10;2.40;;;14.30;99.90;;;14.56;75.85;101205.59;4926395;29;20689;-68
2023/09/26 01:29:04;;;;;;;2.63;2.33;;;14.30;99.90;;;14.56;75.81;101198.56;4908108;29;20636;-68
2023/09/26 01:31:34;;;;;;;2.57;2.37;;;14.30;99.90;;;14.56;75.45;101208.22;4912337;29;20749;-69
2023/09/26 01:34:02;;;;;;;2.90;2.70;;;14.30;99.90;;;14.55;75.73;101204.75;4912010;29;20685;-69
2023/09/26 01:36:30;;;;;;;3.07;2.77;;;14.30;99.90;;;14.54;75.96;101204.88;4913849;29;20701;-69
2023/09/26 01:38:57;;;;;;;2.63;2.47;;;14.30;99.90;;;14.49;76.00;101207.88;4909553;29;20674;-69
2023/09/26 01:41:26;;;;;;;3.23;2.97;;;14.30;99.90;;;14.45;76.02;101206.44;4914289;29;20661;-69
2023/09/26 01:43:53;;;;;;;2.33;2.23;;;14.20;99.90;;;14.43;75.66;101203.09;4893806;29;20642;-68
2023/09/26 01:46:20;;;;;;;2.83;2.50;;;14.20;99.90;;;14.39;76.56;101208.72;4906092;29;20684;-69
2023/09/26 01:48:48;;;;;;;2.50;2.30;;;14.20;99.90;;;14.36;76.43;101206.31;4925946;29;20672;-68
2023/09/26 01:51:15;;;;;;;2.97;2.60;;;14.20;99.90;;;14.30;76.60;101207.63;4908987;29;20726;-69
2023/09/26 01:53:42;;;;;;;3.07;2.80;;;14.10;99.90;;;14.28;76.59;101211.31;4927337;29;20630;-69
2023/09/26 01:56:09;;;;;;;2.53;2.37;;;14.00;99.90;;;14.26;77.03;101202.72;4926475;29;20742;-68
2023/09/26 01:58:36;;;;;;;3.07;2.57;;;14.00;99.90;;;14.28;77.10;101206.06;4905947;29;20634;-68
2023/09/26 02:01:03;;;;;;;3.43;3.00;;;14.00;99.90;;;14.25;76.98;101208.91;4922920;29;20742;-68
2023/09/26 02:03:30;;;;;;;3.30;3.00;;;14.00;99.90;;;14.27;77.63;101212.28;4925163;29;20642;-68
2023/09/26 02:05:58;;;;;;;4.13;2.30;;;14.00;99.90;;;14.25;77.30;101208.91;4928056;29;20697;-68
2023/09/26 02:08:26;;;;;;;3.47;3.17;;;14.00;99.90;;;14.21;77.55;101200.44;4905707;29;20649;-70
2023/09/26 02:10:53;;;;;;;3.70;3.10;;;14.00;99.90;;;14.20;77.63;101206.66;4925618;29;21256;-68
2023/09/26 02:13:19;;;;;;;3.17;2.93;;;14.00;99.90;;;14.18;77.49;101211.19;4904250;29;20658;-69
2023/09/26 02:15:47;;;;;;;3.20;2.43;;;13.90;99.90;;;14.16;77.63;101202.59;4910503;29;21091;-69
2023/09/26 02:18:14;;;;;;;2.67;2.43;;;13.90;99.90;;;14.15;77.66;101202.72;4922546;29;20666;-67
2023/09/26 02:20:41;;;;;;;2.50;2.30;;;13.90;99.90;;;14.13;77.52;101202.00;4909673;29;20748;-68
2023/09/26 02:23:08;;;;;;;2.70;2.50;;;13.90;99.90;;;14.11;77.89;101211.78;4912501;29;20630;-68
2023/09/26 02:25:35;;;;;;;2.37;2.20;;;13.80;99.90;;;14.07;77.79;101197.22;4901953;29;20670;-67
2023/09/26 02:28:02;;;;;;;4.40;3.30;;;13.80;99.90;;;14.03;77.59;101210.56;4912341;29;21024;-68
2023/09/26 02:30:30;;;;;;;3.07;2.77;;;13.80;99.90;;;13.98;77.47;101196.16;4924207;29;20694;-69
2023/09/26 02:32:57;;;;;;;3.03;2.70;;;13.80;99.90;;;13.95;77.83;101197.22;4923745;29;21337;-68
2023/09/26 02:35:24;;;;;;;3.03;2.77;;;13.70;99.90;;;13.95;77.53;101196.38;4926524;29;20666;-69
2023/09/26 02:37:51;;;;;;;3.40;3.10;;;13.70;99.90;;;13.93;77.60;101193.03;4908667;29;20991;-69
2023/09/26 02:40:18;;;;;;;2.17;2.07;;;13.70;99.90;;;13.95;77.44;101197.22;4925420;29;20738;-68
2023/09/26 02:42:45;;;;;;;3.20;2.90;;;13.70;99.90;;;13.95;77.29;101191.97;4911701;29;21241;-69
2023/09/26 02:45:14;;;;;;;3.00;2.80;;;13.70;99.90;;;13.97;77.49;101190.06;4922778;29;20714;-68
2023/09/26 02:47:42;;;;;;;2.97;2.70;;;13.70;99.90;;;13.94;77.75;101194.72;4907965;29;21388;-66
2023/09/26 02:50:11;;;;;;;3.17;2.87;;;13.70;99.90;;;13.91;77.97;101187.91;4905742;29;20647;-68
2023/09/26 02:52:42;;;;;;;3.20;2.90;;;13.70;99.90;;;13.96;77.44;101198.06;4909414;29;20644;-71
2023/09/26 02:55:10;;;;;;;3.83;3.20;;;13.70;99.90;;;13.93;77.87;101188.63;4909011;29;21231;-69
2023/09/26 02:57:38;;;;;;;3.40;3.10;;;13.70;99.90;;;13.93;77.51;101185.16;4912475;29;20763;-69
2023/09/26 03:00:16;;;;;;;3.57;3.10;;;13.70;99.90;;;13.92;77.62;101189.59;4909638;29;20672;-68
2023/09/26 03:02:45;;;;;;;3.67;3.33;;;13.70;99.90;;;13.93;77.42;101193.88;4912684;29;21067;-69
2023/09/26 03:05:14;;;;;;;2.80;2.60;;;13.70;99.90;;;13.91;77.27;101192.31;4911444;29;20662;-67
2023/09/26 03:07:42;;;;;;;2.53;2.43;;;13.70;99.90;;;13.91;77.60;101201.03;4927261;29;20626;-69
2023/09/26 03:10:10;;;;;;;3.50;3.07;;;13.70;99.90;;;13.87;77.69;101196.13;4912586;29;20656;-69
2023/09/26 03:12:37;;;;;;;3.00;2.70;;;13.60;99.90;;;13.88;77.44;101195.19;4909494;29;20649;-68
2023/09/26 03:15:06;;;;;;;3.20;3.00;;;13.60;99.90;;;13.86;78.04;101191.84;4907986;29;20705;-68
2023/09/26 03:17:33;;;;;;;5.07;3.10;;;13.60;99.90;;;13.86;77.71;101187.41;4908166;29;20634;-68
2023/09/26 03:20:01;;;;;;;4.13;3.20;;;13.60;99.90;;;13.86;77.87;101184.78;4901872;29;21235;-68
2023/09/26 03:22:28;;;;;;;3.20;2.90;;;13.60;99.90;;;13.84;78.54;101176.22;4926869;29;20681;-67
2023/09/26 03:24:55;;;;;;;2.90;2.70;;;13.60;99.90;;;13.83;78.92;101181.59;4910365;29;20641;-67
2023/09/26 03:27:24;;;;;;;3.80;2.83;;;13.60;99.90;;;13.82;79.15;101183.38;4923472;29;20619;-69
2023/09/26 03:29:51;;;;;;;3.27;2.97;;;13.60;99.90;;;13.83;78.79;101192.06;4925544;29;20618;-68
2023/09/26 03:32:18;;;;;;;2.90;2.70;;;13.60;99.90;;;13.83;78.81;101181.59;4909895;29;20673;-67
2023/09/26 03:34:45;;;;;;;3.27;2.97;;;13.60;99.90;;;13.81;78.93;101175.63;4926780;29;20633;-67
2023/09/26 03:37:12;;;;;;;3.00;2.70;;;13.60;99.90;;;13.80;79.23;101184.44;4915958;29;20749;-67
2023/09/26 03:39:39;;;;;;;3.10;2.80;;;13.60;99.90;;;13.77;78.76;101179.44;4896863;29;20666;-65
2023/09/26 03:42:06;;;;;;;5.07;3.27;;;13.50;99.90;;;13.69;79.12;101177.38;4919645;29;21408;-68
2023/09/26 03:44:33;;;;;;;4.73;3.43;;;13.50;99.90;;;13.67;79.43;101171.41;4912038;29;20637;-68
2023/09/26 03:47:00;;;;;;;2.63;2.43;;;13.40;99.90;;;13.66;78.92;101175.00;4905752;29;21306;-69
2023/09/26 03:49:27;;;;;;;4.47;3.30;;;13.40;99.90;;;13.63;79.23;101171.78;4916055;29;21084;-68
2023/09/26 03:51:54;;;;;;;6.87;2.90;;;13.40;99.90;;;13.60;78.76;101183.34;4913213;29;20705;-68
2023/09/26 03:54:21;;;;;;;3.03;2.83;;;13.40;99.90;;;13.56;79.60;101187.16;4906964;29;21017;-68
2023/09/26 03:56:48;;;;;;;3.30;2.60;;;13.40;99.90;;;13.54;79.40;101175.09;4929479;29;20665;-68
2023/09/26 03:59:16;;;;;;;3.50;3.13;;;13.30;99.90;;;13.54;79.78;101177.72;4914068;29;20773;-68
2023/09/26 04:01:43;;;;;;;2.60;2.40;;;13.30;99.90;;;13.54;80.17;101177.72;4921995;29;20633;-69
2023/09/26 04:04:10;;;;;;;4.50;2.37;;;13.30;99.90;;;13.56;79.51;101179.28;4912615;29;20996;-67
2023/09/26 04:06:38;;;;;;;7.33;2.67;;;13.30;99.90;;;13.53;79.84;101187.38;4914815;29;20657;-67
2023/09/26 04:09:05;;;;;;;3.00;2.80;;;13.30;99.90;;;13.48;80.06;101181.63;4906478;29;21221;-69
2023/09/26 04:11:32;;;;;;;4.13;3.17;;;13.20;99.90;;;13.44;80.28;101185.44;4912551;29;21068;-68
2023/09/26 04:13:59;;;;;;;4.00;3.47;;;13.20;99.90;;;13.45;80.59;101188.91;4912830;29;21267;-67
2023/09/26 04:16:27;;;;;;;3.70;3.00;;;13.20;99.90;;;13.44;80.71;101185.44;4913376;29;20704;-67
2023/09/26 04:18:54;;;;;;;2.80;2.60;;;13.20;99.90;;;13.43;80.57;101175.06;4911307;29;20634;-68
2023/09/26 04:21:21;;;;;;;3.00;2.70;;;13.20;99.90;;;13.41;80.76;101174.34;4924126;29;20670;-69
2023/09/26 04:23:48;;;;;;;3.23;2.93;;;13.20;99.90;;;13.42;80.65;101169.00;4909023;29;20634;-66
2023/09/26 04:26:16;;;;;;;3.37;3.07;;;13.20;99.90;;;13.43;80.63;101170.66;4913563;29;20668;-68
2023/09/26 04:28:45;;;;;;;3.57;3.27;;;13.20;99.90;;;13.43;80.33;101168.06;4929556;29;20626;-69
2023/09/26 04:31:19;;;;;;;7.93;3.67;;;13.20;99.90;;;13.41;80.54;101166.50;4926099;29;20983;-68
2023/09/26 04:33:48;;;;;;;2.83;2.63;;;13.20;99.90;;;13.44;80.55;101179.38;4903281;29;20646;-68
2023/09/26 04:36:16;;;;;;;3.13;2.90;;;13.20;99.90;;;13.40;80.71;101176.13;4929266;29;21215;-68
2023/09/26 04:38:45;;;;;;;3.70;3.40;;;13.20;99.90;;;13.39;80.89;101184.97;4912173;29;20630;-68
2023/09/26 04:41:13;;;;;;;4.13;3.80;;;13.20;99.90;;;13.39;80.82;101187.59;4907520;29;21249;-68
2023/09/26 04:43:40;;;;;;;6.07;3.43;;;13.20;99.90;;;13.38;80.86;101185.91;4913492;29;20622;-68
2023/09/26 04:46:15;;;;;;;4.60;3.60;;;13.10;99.90;;;13.39;80.57;101187.59;4915101;29;20771;-68
2023/09/26 04:48:44;;;;;;;4.10;3.17;;;13.10;99.90;;;13.36;80.80;101182.56;4913007;29;21062;-68
2023/09/26 04:51:14;;;;;;;4.83;3.93;;;13.10;99.90;;;13.36;80.58;101182.56;4912575;29;21207;-68
2023/09/26 04:53:42;;;;;;;3.27;2.97;;;13.10;99.90;;;13.36;80.65;101186.97;4925881;29;20957;-67
2023/09/26 04:56:09;;;;;;;4.17;3.10;;;13.10;99.90;;;13.37;80.80;101184.25;4905608;29;20682;-66
2023/09/26 04:58:36;;;;;;;3.50;3.20;;;13.10;99.90;;;13.35;80.92;101180.91;4921136;29;20655;-66
2023/09/26 05:01:15;;;;;;;6.13;3.93;;;13.10;99.90;;;13.33;81.48;101184.59;4910576;29;21289;-68
2023/09/26 05:03:43;;;;;;;4.00;3.37;;;13.10;99.90;;;13.31;81.25;101189.91;4911186;29;20629;-68
2023/09/26 05:06:11;;;;;;;5.13;2.77;;;13.10;99.90;;;13.31;81.31;101189.91;4923441;29;20666;-69
2023/09/26 05:08:40;;;;;;;2.60;2.40;;;13.10;99.90;;;13.29;81.67;101188.38;4904112;29;20682;-69
2023/09/26 05:11:15;;;;;;;2.73;2.53;;;13.00;99.90;;;13.28;81.07;101186.69;4910273;29;20657;-69
2023/09/26 05:13:43;;;;;;;4.57;3.23;;;13.00;99.90;;;13.24;81.16;101189.53;4908882;29;20665;-67
2023/09/26 05:16:13;;;;;;;2.80;2.60;;;13.00;99.90;;;13.21;81.07;101196.81;4925914;29;20651;-69
2023/09/26 05:18:40;;;;;;;3.40;2.83;;;13.00;99.90;;;13.13;81.21;101193.91;4908865;29;20636;-68
2023/09/26 05:21:08;;;;;;;3.57;3.23;;;12.90;99.90;;;13.07;81.85;101194.38;4906059;29;20732;-68
2023/09/26 05:23:35;;;;;;;3.97;3.30;;;12.90;99.90;;;13.05;82.23;101188.41;4911771;29;20650;-67
2023/09/26 05:26:13;;;;;;;3.60;3.27;;;12.80;99.90;;;13.06;81.81;101190.06;4909021;29;20676;-68
2023/09/26 05:28:40;;;;;;;2.60;2.33;;;12.80;99.90;;;13.05;82.20;101188.41;4912477;29;20716;-68
2023/09/26 05:31:08;;;;;;;3.37;3.07;;;12.80;99.90;;;13.09;81.90;101190.69;4924178;29;21070;-66
2023/09/26 05:33:35;;;;;;;3.13;2.83;;;12.80;99.90;;;13.12;81.64;101193.06;4907996;29;20635;-68
2023/09/26 05:36:04;;;;;;;5.03;2.90;;;12.90;99.90;;;13.23;82.33;101197.53;4904772;29;20721;-68
2023/09/26 05:38:30;;;;;;;3.50;3.20;;;13.00;99.90;;;13.41;81.78;101190.94;4924020;29;20643;-68
2023/09/26 05:40:57;;;;;;;3.20;2.80;;;13.10;99.90;;;13.65;80.86;101191.69;4925265;29;20745;-67
2023/09/26 05:43:24;;;;;;;5.80;3.27;;;13.30;99.90;;;13.95;79.51;101188.50;4924888;29;20663;-68
2023/09/26 05:45:51;;;;;;;3.30;2.77;;;13.60;99.90;;;14.26;78.55;101189.59;4925751;29;20665;-68
2023/09/26 05:48:19;;;;;;;4.77;3.70;;;13.90;99.90;;;14.61;76.67;101196.38;4913671;29;20629;-68
2023/09/26 05:50:46;;;;;;;3.17;2.87;;;14.20;99.90;;;15.01;75.09;101196.66;4910359;29;20638;-69
2023/09/26 05:53:13;;;;;;;3.07;2.77;;;14.60;99.90;;;15.44;72.92;101201.84;4911873;29;20721;-69
2023/09/26 05:55:40;;;;;;;3.70;3.40;;;15.00;99.90;;;15.94;71.35;101201.06;4906435;29;20664;-68
2023/09/26 05:58:07;;;;;;;3.20;2.90;;;15.50;99.90;;;16.37;68.75;101197.34;4911911;29;21200;-69
2023/09/26 06:00:36;;;;;;;3.70;3.10;;;15.90;99.90;;;16.73;67.01;101195.00;4912629;29;20673;-69
2023/09/26 06:03:03;;;;;;;5.43;3.70;;;16.30;99.90;;;17.09;65.69;101209.31;4902182;29;20664;-68
2023/09/26 06:05:30;;;;;;;10.30;3.60;;;16.70;99.90;;;17.45;64.04;101206.00;4910353;29;21159;-69
2023/09/26 06:07:57;;;;;;;4.67;4.27;;;17.10;99.90;;;17.82;62.87;101206.09;4909564;29;21173;-69
2023/09/26 06:10:25;;;;;;;4.20;3.90;;;17.50;99.90;;;18.19;61.50;101209.56;4927006;29;20637;-69
2023/09/26 06:12:53;;;;;;;7.80;4.10;;;17.90;99.90;;;18.55;59.98;101215.81;4907779;29;20646;-69
2023/09/26 06:15:22;;;;;;;3.30;3.00;;;18.30;99.90;;;19.00;59.25;101221.13;4910725;29;20670;-70
2023/09/26 06:17:48;;;;;;;4.13;3.33;;;18.80;99.90;;;19.52;57.45;101216.81;4911922;29;20642;-70
2023/09/26 06:20:16;;;;;;;4.57;3.73;;;19.20;99.90;;;19.98;56.44;101219.13;4910972;29;20701;-69
2023/09/26 06:22:43;;;;;;;3.87;3.63;;;19.70;99.90;;;20.36;55.06;101216.03;4926798;29;21554;-69
2023/09/26 06:25:10;;;;;;;4.03;3.63;;;20.20;99.90;;;20.69;53.81;101223.16;4911108;29;20670;-69
2023/09/26 06:27:38;;;;;;;4.47;4.07;;;20.50;99.90;;;21.00;52.72;101223.38;4913881;29;20681;-70
2023/09/26 06:30:05;;;;;;;5.93;4.13;;;20.80;99.90;;;21.15;51.91;101228.88;4917175;29;20721;-69
2023/09/26 06:32:34;;;;;;;3.33;3.03;;;21.00;99.90;;;21.44;51.48;101235.41;4909431;29;20648;-68
2023/09/26 06:35:01;;;;;;;4.67;4.17;;;21.20;99.90;;;21.69;50.12;101230.06;4911796;29;20622;-68
2023/09/26 06:37:28;;;;;;;4.80;4.00;;;21.50;99.80;;;21.94;49.88;101231.72;4911405;29;20725;-68
2023/09/26 06:40:00;;;;;;;4.30;3.90;;;21.70;99.40;;;22.15;49.47;101226.69;4894689;29;20645;-68
2023/09/26 06:42:27;;;;;;;6.10;4.40;;;22.00;98.80;;;22.41;48.79;101221.94;4912386;29;20622;-69
2023/09/26 06:44:54;;;;;;;4.90;4.40;;;22.20;98.30;;;22.75;48.41;101224.31;4911464;29;20741;-68
2023/09/26 06:47:21;;;;;;;5.17;4.30;;;22.50;97.80;;;23.01;47.66;101225.66;4911479;29;20642;-67
2023/09/26 06:49:48;;;;;;;4.53;4.10;;;22.90;97.00;;;23.25;47.00;101226.50;4909691;29;20645;-68
2023/09/26 06:52:16;;;;;;;5.33;4.40;;;23.10;96.60;;;23.56;46.90;101229.91;4901496;29;20634;-68
2023/09/26 06:54:44;;;;;;;4.90;4.40;;;23.30;96.00;;;23.71;46.40;101223.63;4909110;29;21068;-68
2023/09/26 06:57:15;;;;;;;4.80;4.40;;;23.60;95.40;;;23.79;45.89;101220.03;4904123;29;20670;-68
2023/09/26 06:59:42;;;;;;;5.57;4.70;;;23.70;95.00;;;24.10;45.31;101230.59;4910520;29;21052;-67
2023/09/26 07:02:09;;;;;;;4.80;4.30;;;;;;;24.38;45.13;101226.28;4911907;29;20638;-68
2023/09/26 07:04:36;;;;;;;5.50;5.00;;;24.20;93.90;;;24.47;44.79;101228.63;4902291;29;20711;-68
2023/09/26 07:07:04;;;;;;;4.90;4.37;;;24.40;93.80;;;24.73;44.13;101228.13;4904511;29;20664;-68
2023/09/26 07:09:31;;;;;;;4.57;4.17;;;24.60;93.20;;;24.96;44.51;101236.03;4909675;29;21052;-69
2023/09/26 07:11:57;;;;;;;7.20;5.37;;;24.80;92.70;;;25.15;43.35;101235.41;4915837;29;20733;-70
2023/09/26 07:14:24;;;;;;;4.97;4.03;;;25.00;91.90;;;25.30;42.80;101239.66;4897472;29;21207;-69
2023/09/26 07:16:52;;;;;;;5.00;4.50;;;25.20;91.40;;;25.50;42.78;101239.03;4916818;29;20677;-71
2023/09/26 07:19:19;;;;;;;5.20;4.70;;;25.50;91.10;;;25.89;42.44;101242.88;4914958;29;20969;-68
2023/09/26 07:21:46;;;;;;;5.70;4.60;;;25.90;90.60;;;26.18;41.96;101233.81;4913969;29;21024;-70
2023/09/26 07:24:13;;;;;;;5.77;5.13;;;26.20;90.00;;;26.51;41.41;101234.00;4904505;29;20642;-68
2023/09/26 07:26:40;;;;;;;5.57;5.10;;;26.60;88.80;;;26.84;40.84;101230.44;4912954;29;20654;-69
2023/09/26 07:29:08;;;;;;;5.47;5.00;;;27.00;87.20;;;27.11;40.58;101236.66;4914108;29;20630;-69
2023/09/26 07:31:35;;;;;;;5.20;4.70;;;27.30;86.40;;;27.65;40.30;101236.53;4925068;29;20650;-69
2023/09/26 07:34:02;;;;;;;6.90;5.07;;;27.80;84.60;;;28.21;39.01;101237.72;4915412;29;20658;-66
2023/09/26 07:36:32;;;;;;;5.33;4.83;;;28.40;82.60;;;28.84;37.96;101237.91;4914371;29;20676;-69
2023/09/26 07:38:59;;;;;;;5.77;5.27;;;29.00;80.00;;;29.11;37.22;101234.84;4916160;29;20637;-68
2023/09/26 07:41:26;;;;;;;11.73;6.00;;;29.50;77.70;;;29.59;36.52;101239.69;4913283;29;20701;-66
2023/09/26 07:43:53;;;;;;;5.73;5.13;;;29.80;76.30;;;30.01;35.92;101238.09;4914066;29;21021;-69
2023/09/26 07:46:20;;;;;;;4.80;4.30;;;30.20;74.40;;;30.34;35.46;101238.59;4912865;29;20701;-70
2023/09/26 07:48:48;;;;;;;4.53;4.13;;;30.50;72.90;;;30.28;35.15;101247.53;4911327;29;20641;-68
2023/09/26 07:51:19;;;;;;;5.17;4.67;;;30.60;71.90;;;30.57;35.15;101236.03;4911327;29;20713;-68
2023/09/26 07:53:46;;;;;;;6.10;4.23;;;30.80;70.90;;;30.80;34.89;101244.19;4909484;29;20653;-66
2023/09/26 07:56:13;;;;;;;4.33;4.03;;;31.20;69.80;;;31.17;34.34;101242.25;4909541;29;20705;-66
2023/09/26 07:58:40;;;;;;;5.40;4.90;;;31.50;68.70;;;31.37;33.94;101240.88;4909934;29;21291;-70
2023/09/26 08:01:08;;;;;;;4.53;4.20;;;31.90;67.20;;;31.52;33.49;101232.38;4915145;29;20681;-69
2023/09/26 08:03:38;;;;;;;5.57;4.90;;;32.10;65.90;;;31.65;32.87;101237.56;4911277;29;20632;-67
2023/09/26 08:06:06;;;;;;;4.93;4.43;;;32.30;64.90;;;32.16;32.47;101238.75;4925554;29;20646;-68
2023/09/26 08:08:34;;;;;;;4.50;4.20;;;32.60;64.40;;;32.73;31.99;101237.81;4909610;29;20681;-68
2023/09/26 08:11:11;;;;;;;4.50;4.20;;;33.20;62.90;;;33.43;30.75;101236.38;4911688;29;21071;-65
2023/09/26 08:13:39;;;;;;;6.20;5.00;;;33.80;61.60;;;34.12;29.72;101234.19;4912053;29;21072;-68
2023/09/26 08:16:07;;;;;;;5.30;4.90;;;34.40;60.50;;;34.86;29.15;101233.47;4913575;29;21283;-69
2023/09/26 08:18:35;;;;;;;5.80;5.37;;;35.10;59.10;;;35.27;28.76;101232.00;4915373;29;20729;-67
2023/09/26 08:21:02;;;;;;;5.70;5.30;;;35.60;57.80;;;35.23;28.61;101235.47;4905875;29;20726;-68
2023/09/26 08:23:29;;;;;;;5.53;5.10;;;35.70;57.00;;;35.20;28.52;101236.84;4903160;29;20702;-67
2023/09/26 08:25:59;;;;;;;9.70;5.20;;;35.60;56.70;;;35.48;28.33;101228.41;4906594;29;21256;-68
2023/09/26 08:28:28;;;;;;;5.53;5.03;;;35.60;56.50;;;35.55;28.28;101228.16;4913062;29;20704;-70
2023/09/26 08:30:59;;;;;;;6.10;5.50;;;35.60;56.20;;;35.24;28.81;101227.09;4927315;29;20637;-68
2023/09/26 08:33:26;;;;;;;4.90;3.90;;;35.40;56.30;;;35.01;28.82;101228.25;4913006;29;20634;-68
2023/09/26 08:35:53;;;;;;;6.10;5.57;;;35.30;56.00;;;34.94;28.80;101226.78;4911606;29;20668;-70
2023/09/26 08:38:20;;;;;;;4.83;4.53;;;35.30;55.50;;;34.95;28.87;101229.25;4907070;29;21207;-68
2023/09/26 08:40:51;;;;;;;4.97;4.67;;;35.40;56.10;;;35.54;28.50;101224.66;4929267;29;20669;-68
2023/09/26 08:43:26;;;;;;;6.00;5.50;;;35.90;54.90;;;36.17;27.58;101215.53;4913145;29;20646;-69
2023/09/26 08:45:54;;;;;;;6.17;5.70;;;36.50;54.20;;;37.14;26.29;101222.91;4912457;29;20644;-69
2023/09/26 08:48:21;;;;;;;5.47;5.07;;;37.40;53.10;;;38.08;25.54;101225.78;4923400;29;20646;-69
2023/09/26 08:50:51;;;;;;;5.33;4.93;;;38.20;52.30;;;38.72;24.80;101226.63;4908316;29;20646;-69
2023/09/26 08:53:18;;;;;;;4.53;4.23;;;38.90;51.20;;;39.21;24.12;101221.09;4904218;29;20637;-69
2023/09/26 08:55:49;;;;;;;5.00;4.70;;;39.40;50.40;;;39.42;23.98;101219.03;4912006;29;21039;-69
2023/09/26 08:58:19;;;;;;;5.57;4.40;;;39.70;49.50;;;39.51;23.92;101215.38;4913093;29;21027;-66
2023/09/26 09:00:47;;;;;;;4.87;4.53;;;39.80;49.10;;;39.84;23.53;101210.16;4929268;29;20761;-68
2023/09/26 09:03:14;;;;;;;4.70;4.50;;;40.00;48.60;;;39.97;23.46;101209.44;4911892;29;20637;-68
2023/09/26 09:05:41;;;;;;;5.17;4.87;;;40.20;48.30;;;39.90;23.39;101206.25;4915235;29;20657;-70
2023/09/26 09:08:21;;;;;;;5.20;4.70;;;40.30;47.80;;;39.69;23.73;101202.13;4911136;29;20646;-70
2023/09/26 09:10:51;;;;;;;5.70;5.27;;;40.20;47.70;;;39.84;23.68;101197.31;4913981;29;20629;-69
2023/09/26 09:13:39;;;;;;;6.10;5.70;;;40.10;47.40;;;39.87;23.18;101195.91;4908868;29;20746;-71
2023/09/26 09:16:15;;;;;;;5.77;5.37;;;40.20;47.10;;;40.22;22.84;101199.03;4922271;29;21310;-68
2023/09/26 09:18:50;;;;;;;5.60;4.97;;;40.40;47.10;;;40.33;22.62;101186.06;4906251;29;20661;-70
2023/09/26 09:21:27;;;;;;;6.20;5.70;;;40.70;46.70;;;40.16;23.51;101186.56;4909747;29;20673;-69
2023/09/26 09:23:55;;;;;;;6.03;5.53;;;40.60;46.80;;;40.01;23.60;101189.47;4911348;29;21196;-70
2023/09/26 09:26:24;;;;;;;6.00;5.50;;;40.20;46.70;;;39.37;23.68;101184.41;4924918;29;20737;-70
2023/09/26 09:28:55;;;;;;;8.10;7.30;;;39.60;47.20;;;38.34;24.75;101180.19;4918721;29;21294;-70
2023/09/26 09:31:22;;;;;;;6.27;5.77;;;38.40;48.10;;;36.89;26.38;101176.63;4913432;29;20632;-68
2023/09/26 09:33:56;;;;;;;6.57;5.87;;;36.90;49.60;;;35.37;28.18;101171.56;4921895;29;20656;-68
2023/09/26 09:36:23;;;;;;;6.23;5.70;;;35.40;50.80;;;33.55;30.76;101177.63;4912419;29;20669;-69
2023/09/26 09:38:50;;;;;;;8.17;6.30;;;32.20;54.00;;;32.13;32.63;101167.16;4926103;29;20727;-66
2023/09/26 09:41:19;;;;;;;7.03;6.33;;;32.00;54.60;;;30.75;34.82;101160.56;4911481;29;20765;-66
2023/09/26 09:43:46;;;;;;;9.70;8.37;;;30.70;56.70;;;29.66;36.83;101160.59;4910123;29;20678;-67
2023/09/26 09:46:16;;;;;;;11.10;8.73;;;29.60;58.50;;;28.73;38.49;101148.09;4896343;29;20669;-69
2023/09/26 09:48:45;;;;;;;10.90;8.37;;;28.60;60.20;;;27.84;39.61;101159.78;4908439;29;20644;-69
2023/09/26 09:51:15;;;;;;;11.97;9.30;;;27.70;62.10;;;27.23;41.25;101153.84;4924585;29;20718;-69
2023/09/26 09:53:48;;;;;;;13.73;8.50;;;27.00;64.00;;;26.94;42.57;101143.53;4925761;29;20653;-67
2023/09/26 09:56:20;;;;;;;9.67;8.20;;;26.60;65.40;;;26.62;43.35;101145.09;4905631;29;21041;-68
2023/09/26 09:58:51;;;;;;;12.27;8.47;;;26.30;66.70;;;26.40;43.80;101146.25;4911489;29;20634;-68
2023/09/26 10:01:20;;;;;;;11.03;7.40;;;26.00;67.70;;;26.22;44.52;101149.47;4896708;29;20670;-69
2023/09/26 10:03:50;;;;;;;8.60;6.37;;;25.70;68.70;;;26.00;45.18;101142.56;4909226;29;20648;-66
2023/09/26 10:06:20;;;;;;;12.80;9.43;;;25.60;69.60;;;25.69;45.95;101142.16;4907106;29;21066;-69
2023/09/26 10:08:49;;;;;;;12.10;9.10;;;25.30;70.40;;;25.51;46.40;101139.16;4907716;29;20642;-69
2023/09/26 10:11:18;;;;;;;11.33;8.87;;;25.10;71.40;;;25.48;46.54;101139.56;4904360;29;21165;-69
2023/09/26 10:13:47;;;;;;;11.20;8.30;;;25.00;72.10;;;25.66;46.90;101137.22;4912300;29;20634;-69
2023/09/26 10:16:17;;;;;;;9.90;6.50;;;25.20;72.30;;;25.95;46.47;101136.97;4909206;29;20677;-70